Flight Track Log - Related Links

Times and Time Zones

All times are in EDT time to prevent confusion due to time zone crossing. See the ASQ5041 flight status page for this flight to view local times or setup timezone preferences in your user account.

Time Position Orientation Groundspeed Altitude Reporting Facility
EDT Latitude Longitude Course Direction KTS MPH feet Rate Location/Type
Wed 06:09:17 PM 42.9544 -85.6222 305° West 221 254 4,900  Level Chicago Center
Wed 06:10:19 PM 42.9964 -85.7042 305° West 256 295 7,400 2,371 Climbing Chicago Center
Wed 06:11:21 PM 43.0425 -85.7922 306° West 284 327 9,800 2,226 Climbing Chicago Center
Wed 06:12:23 PM 43.0992 -85.9025 305° West 306 352 12,000 1,597 Climbing Chicago Center
Wed 06:13:00 PM 43.1749 -86.0497 304° West  Level FlightAware Approximate
Wed 06:13:25 PM 43.1533 -86.0089 305° West 349 402 13,100  Level Chicago Center
Wed 06:14:27 PM 43.2208 -86.1153 311° West 371 427 15,100 2,129 Climbing Chicago Center
Wed 06:15:29 PM 43.3036 -86.2417 312° West 373 429 17,500 1,887 Climbing Chicago Center
Wed 06:16:31 PM 43.3756 -86.3469 313° West 377 434 19,000 1,385 Climbing Chicago Center
Wed 06:17:00 PM 43.4028 -86.3919 310° West 381 438 19,600 1,385 Climbing Minneapolis Center
Wed 06:18:02 PM 43.4764 -86.5025 313° West 388 447 21,100 1,452 Climbing Minneapolis Center
Wed 06:19:04 PM 43.5508 -86.6164 312° West 397 457 22,600 1,516 Climbing Minneapolis Center
Wed 06:19:37 PM 43.5958 -86.6828 313° West 399 459 23,500 1,742 Climbing Chicago Center
Wed 06:20:06 PM 43.6392 -86.7494 312° West 393 452 24,400 1,516 Climbing Minneapolis Center
Wed 06:21:08 PM 43.7125 -86.8633 312° West 395 455 25,800 1,161 Climbing Minneapolis Center
Wed 06:22:10 PM 43.7869 -86.9775 312° West 400 460 26,800 968 Climbing Minneapolis Center
Wed 06:23:12 PM 43.8633 -87.0953 312° West 409 471 27,800 968 Climbing Minneapolis Center
Wed 06:24:14 PM 43.9392 -87.2153 311° West 414 476 28,800 1,065 Climbing Minneapolis Center
Wed 06:25:16 PM 44.0303 -87.3583 312° West 415 478 30,000 576 Climbing Minneapolis Center
Wed 06:26:19 PM 44.1094 -87.4819 312° West 424 488 30,000  Level Minneapolis Center
Wed 06:27:21 PM 44.1919 -87.6119 312° West 443 510 30,000  Level Minneapolis Center
Wed 06:28:23 PM 44.2481 -87.7644 297° West 447 514 30,000  Level Minneapolis Center
Wed 06:29:25 PM 44.2819 -87.9325 286° West 449 517 30,000  Level Minneapolis Center
Wed 06:30:27 PM 44.3192 -88.1292 285° West 450 518 30,000  Level Minneapolis Center
Wed 06:31:41 PM 44.3519 -88.3028 285° West 457 526 30,000  Level Minneapolis Center
Wed 06:32:43 PM 44.3892 -88.5033 285° West 458 527 30,000  Level Minneapolis Center
Wed 06:33:46 PM 44.4214 -88.6758 285° West 459 528 30,000  Level Minneapolis Center
Wed 06:34:48 PM 44.4581 -88.8772 284° West 459 528 30,000  Level Minneapolis Center
Wed 06:35:50 PM 44.4894 -89.0511 284° West 461 531 30,000  Level Minneapolis Center
Wed 06:36:52 PM 44.5211 -89.2258 284° West 463 533 30,000  Level Minneapolis Center
Wed 06:37:54 PM 44.5519 -89.4006 284° West 464 534 30,000  Level Minneapolis Center
Wed 06:38:56 PM 44.5881 -89.6044 284° West 462 532 30,000  Level Minneapolis Center
Wed 06:39:58 PM 44.6169 -89.7786 283° West 460 529 30,000  Level Minneapolis Center
Wed 06:41:00 PM 44.6469 -89.9539 284° West 462 532 30,000  Level Minneapolis Center
Wed 06:42:02 PM 44.6767 -90.1281 284° West 460 529 30,000  Level Minneapolis Center
Wed 06:43:04 PM 44.7058 -90.3011 283° West 457 526 30,000  Level Minneapolis Center
Wed 06:44:06 PM 44.7356 -90.4769 283° West 461 531 30,000  Level Minneapolis Center
Wed 06:45:08 PM 44.7589 -90.6186 283° West 458 527 30,000  Level Minneapolis Center
Wed 06:46:11 PM 44.8000 -90.8647 283° West 463 533 30,000 -864 Level Minneapolis Center
Wed 06:47:13 PM 44.8289 -91.0392 283° West 462 532 28,200 -2,081 Descending Minneapolis Center
Wed 06:48:15 PM 44.8558 -91.2114 283° West 455 524 25,700 -2,419 Descending Minneapolis Center
Wed 06:49:17 PM 44.8808 -91.3842 282° West 454 522 23,200 -2,419 Descending Minneapolis Center
Wed 06:50:19 PM 44.9097 -91.5525 284° West 448 516 20,700 -2,661 Descending Minneapolis Center
Wed 06:51:21 PM 44.9494 -91.7467 286° West 434 499 17,700 -2,613 Descending Minneapolis Center
Wed 06:52:23 PM 44.9783 -91.9008 285° West 411 473 15,300 -2,129 Descending Minneapolis Center
Wed 06:53:25 PM 45.0058 -92.0478 285° West 392 451 13,300 -1,935 Descending Minneapolis Center
Wed 06:54:27 PM 45.0317 -92.1933 284° West 386 444 11,300 -1,113 Descending Minneapolis Center
Wed 06:55:29 PM 45.0414 -92.3411 275° West 385 443 11,000 -387 Descending Minneapolis Center
Wed 06:56:31 PM 45.0208 -92.4658 257° West 318 366 10,500 -1,200 Descending Minneapolis Center
Wed 06:57:34 PM 44.9542 -92.5550 223° Southwest 277 319 8,500 -1,632 Descending Minneapolis Center
Wed 06:58:36 PM 44.8925 -92.6083 212° Southwest 262 302 7,100 -774 Descending Minneapolis Center
Wed 06:59:38 PM 44.8392 -92.6586 214° Southwest 237 273 6,900 -619 Descending Minneapolis Center
Wed 07:00:42 PM 44.8103 -92.7447 245° Southwest 242 278 5,800 -1,095 Descending Minneapolis Center
Wed 07:01:44 PM 44.8125 -92.8478 272° West 215 247 4,600 -864 Descending Minneapolis Center
Wed 07:02:47 PM 44.8128 -92.9322 270° West 216 249 4,000 -528 Descending Minneapolis Center
Wed 07:03:49 PM 44.8128 -93.0147 270° West 213 245 3,500 -629 Descending Minneapolis Center
Wed 07:04:51 PM 44.8325 -93.0825 292° West 187 215 2,700 -823 Descending Minneapolis Center
Wed 07:05:53 PM 44.8572 -93.1386 302° West 171 197 1,800 -871 Descending Minneapolis Center
Wed 07:08:00 PM 44.8667 -93.2167 284° West  Level FlightAware Approximate
Wed 07:15:00 PM 44.8820 -93.2218 284° West  Level Estimated

Login

Don't have an account? Register now (free) for customized features, flight alerts, and more!